sensor_id;sensor_type;location;lat;lon;timestamp;P1;durP1;ratioP1;P2;durP2;ratioP2
12663;SDS011;6396;58.490;15.528;2022-12-05T00:01:23;2.73;;;2.50;;
12663;SDS011;6396;58.490;15.528;2022-12-05T00:03:53;2.87;;;2.57;;
12663;SDS011;6396;58.490;15.528;2022-12-05T00:06:22;3.63;;;2.70;;
12663;SDS011;6396;58.490;15.528;2022-12-05T00:08:52;3.40;;;2.90;;
12663;SDS011;6396;58.490;15.528;2022-12-05T00:11:20;3.40;;;2.93;;
12663;SDS011;6396;58.490;15.528;2022-12-05T00:13:49;3.33;;;2.50;;
12663;SDS011;6396;58.490;15.528;2022-12-05T00:16:18;3.07;;;2.63;;
12663;SDS011;6396;58.490;15.528;2022-12-05T00:18:47;2.83;;;2.53;;
12663;SDS011;6396;58.490;15.528;2022-12-05T00:21:15;3.37;;;2.67;;
12663;SDS011;6396;58.490;15.528;2022-12-05T00:23:44;2.60;;;2.37;;
12663;SDS011;6396;58.490;15.528;2022-12-05T00:26:21;3.40;;;2.67;;
12663;SDS011;6396;58.490;15.528;2022-12-05T00:28:49;2.77;;;2.47;;
12663;SDS011;6396;58.490;15.528;2022-12-05T00:31:17;4.00;;;3.20;;
12663;SDS011;6396;58.490;15.528;2022-12-05T00:33:45;3.43;;;2.70;;
12663;SDS011;6396;58.490;15.528;2022-12-05T00:36:14;3.37;;;2.80;;
12663;SDS011;6396;58.490;15.528;2022-12-05T00:38:43;3.87;;;2.70;;
12663;SDS011;6396;58.490;15.528;2022-12-05T00:41:13;3.60;;;3.00;;
12663;SDS011;6396;58.490;15.528;2022-12-05T00:43:41;2.97;;;2.53;;
12663;SDS011;6396;58.490;15.528;2022-12-05T00:46:09;4.00;;;2.80;;
12663;SDS011;6396;58.490;15.528;2022-12-05T00:48:37;3.43;;;2.57;;
12663;SDS011;6396;58.490;15.528;2022-12-05T00:51:05;3.00;;;2.50;;
12663;SDS011;6396;58.490;15.528;2022-12-05T00:53:34;3.00;;;2.70;;
12663;SDS011;6396;58.490;15.528;2022-12-05T00:56:01;3.90;;;3.00;;
12663;SDS011;6396;58.490;15.528;2022-12-05T00:58:30;2.73;;;2.40;;
12663;SDS011;6396;58.490;15.528;2022-12-05T01:01:04;3.20;;;2.63;;
12663;SDS011;6396;58.490;15.528;2022-12-05T01:03:31;2.80;;;2.60;;
12663;SDS011;6396;58.490;15.528;2022-12-05T01:05:58;4.03;;;2.87;;
12663;SDS011;6396;58.490;15.528;2022-12-05T01:08:25;4.30;;;2.93;;
12663;SDS011;6396;58.490;15.528;2022-12-05T01:10:52;3.00;;;2.57;;
12663;SDS011;6396;58.490;15.528;2022-12-05T01:13:20;3.27;;;2.60;;
12663;SDS011;6396;58.490;15.528;2022-12-05T01:15:48;2.93;;;2.57;;
12663;SDS011;6396;58.490;15.528;2022-12-05T01:18:15;4.03;;;2.80;;
12663;SDS011;6396;58.490;15.528;2022-12-05T01:20:44;2.67;;;2.30;;
12663;SDS011;6396;58.490;15.528;2022-12-05T01:23:11;3.47;;;2.60;;
12663;SDS011;6396;58.490;15.528;2022-12-05T01:25:44;3.20;;;2.67;;
12663;SDS011;6396;58.490;15.528;2022-12-05T01:28:12;3.47;;;2.70;;
12663;SDS011;6396;58.490;15.528;2022-12-05T01:30:39;2.80;;;2.53;;
12663;SDS011;6396;58.490;15.528;2022-12-05T01:33:09;3.50;;;2.50;;
12663;SDS011;6396;58.490;15.528;2022-12-05T01:35:37;3.13;;;2.63;;
12663;SDS011;6396;58.490;15.528;2022-12-05T01:38:06;3.10;;;2.80;;
12663;SDS011;6396;58.490;15.528;2022-12-05T01:40:34;4.53;;;3.00;;
12663;SDS011;6396;58.490;15.528;2022-12-05T01:43:01;3.10;;;2.77;;
12663;SDS011;6396;58.490;15.528;2022-12-05T01:45:30;3.60;;;2.77;;
12663;SDS011;6396;58.490;15.528;2022-12-05T01:47:58;2.60;;;2.40;;
12663;SDS011;6396;58.490;15.528;2022-12-05T01:50:33;3.60;;;2.57;;
12663;SDS011;6396;58.490;15.528;2022-12-05T01:53:03;3.77;;;2.83;;
12663;SDS011;6396;58.490;15.528;2022-12-05T01:55:31;3.43;;;2.90;;
12663;SDS011;6396;58.490;15.528;2022-12-05T01:58:01;3.20;;;2.67;;
12663;SDS011;6396;58.490;15.528;2022-12-05T02:00:30;4.13;;;2.90;;
12663;SDS011;6396;58.490;15.528;2022-12-05T02:02:58;3.17;;;2.70;;
12663;SDS011;6396;58.490;15.528;2022-12-05T02:05:30;3.77;;;2.83;;
12663;SDS011;6396;58.490;15.528;2022-12-05T02:08:01;3.07;;;2.77;;
12663;SDS011;6396;58.490;15.528;2022-12-05T02:10:32;3.43;;;2.80;;
12663;SDS011;6396;58.490;15.528;2022-12-05T02:13:04;2.93;;;2.37;;
12663;SDS011;6396;58.490;15.528;2022-12-05T02:15:39;3.33;;;2.67;;
12663;SDS011;6396;58.490;15.528;2022-12-05T02:18:15;2.97;;;2.50;;
12663;SDS011;6396;58.490;15.528;2022-12-05T02:20:58;4.57;;;2.83;;
12663;SDS011;6396;58.490;15.528;2022-12-05T02:23:41;2.80;;;2.50;;
12663;SDS011;6396;58.490;15.528;2022-12-05T02:26:32;2.87;;;2.50;;
12663;SDS011;6396;58.490;15.528;2022-12-05T02:32:12;2.93;;;2.67;;
12663;SDS011;6396;58.490;15.528;2022-12-05T02:34:43;3.67;;;2.83;;
12663;SDS011;6396;58.490;15.528;2022-12-05T02:37:21;3.80;;;3.00;;
12663;SDS011;6396;58.490;15.528;2022-12-05T02:39:54;3.50;;;3.00;;
12663;SDS011;6396;58.490;15.528;2022-12-05T02:42:30;4.53;;;3.07;;
12663;SDS011;6396;58.490;15.528;2022-12-05T02:45:02;3.97;;;2.87;;
12663;SDS011;6396;58.490;15.528;2022-12-05T02:47:36;2.90;;;2.47;;
12663;SDS011;6396;58.490;15.528;2022-12-05T02:50:06;2.67;;;2.40;;
12663;SDS011;6396;58.490;15.528;2022-12-05T02:52:40;2.93;;;2.60;;
12663;SDS011;6396;58.490;15.528;2022-12-05T02:55:10;3.17;;;2.60;;
12663;SDS011;6396;58.490;15.528;2022-12-05T02:57:40;3.47;;;2.50;;
12663;SDS011;6396;58.490;15.528;2022-12-05T03:00:10;3.53;;;2.77;;
12663;SDS011;6396;58.490;15.528;2022-12-05T03:02:39;2.97;;;2.53;;
12663;SDS011;6396;58.490;15.528;2022-12-05T03:05:08;3.60;;;2.60;;
12663;SDS011;6396;58.490;15.528;2022-12-05T03:07:46;3.23;;;2.50;;
12663;SDS011;6396;58.490;15.528;2022-12-05T03:10:24;3.40;;;2.70;;
12663;SDS011;6396;58.490;15.528;2022-12-05T03:12:55;3.80;;;2.90;;
12663;SDS011;6396;58.490;15.528;2022-12-05T03:15:26;3.73;;;2.87;;
12663;SDS011;6396;58.490;15.528;2022-12-05T03:17:59;4.57;;;2.80;;
12663;SDS011;6396;58.490;15.528;2022-12-05T03:20:32;3.77;;;2.87;;
12663;SDS011;6396;58.490;15.528;2022-12-05T03:23:05;3.43;;;2.77;;
12663;SDS011;6396;58.490;15.528;2022-12-05T03:25:39;2.73;;;2.53;;
12663;SDS011;6396;58.490;15.528;2022-12-05T03:28:17;2.97;;;2.67;;
12663;SDS011;6396;58.490;15.528;2022-12-05T03:30:49;3.37;;;2.30;;
12663;SDS011;6396;58.490;15.528;2022-12-05T03:33:20;3.60;;;2.60;;
12663;SDS011;6396;58.490;15.528;2022-12-05T03:35:56;3.03;;;2.57;;
12663;SDS011;6396;58.490;15.528;2022-12-05T03:38:29;3.83;;;2.53;;
12663;SDS011;6396;58.490;15.528;2022-12-05T03:41:02;3.30;;;2.97;;
12663;SDS011;6396;58.490;15.528;2022-12-05T03:43:37;3.40;;;2.57;;
12663;SDS011;6396;58.490;15.528;2022-12-05T03:46:11;3.30;;;2.93;;
12663;SDS011;6396;58.490;15.528;2022-12-05T03:48:45;3.23;;;2.80;;
12663;SDS011;6396;58.490;15.528;2022-12-05T03:51:19;3.73;;;2.93;;
12663;SDS011;6396;58.490;15.528;2022-12-05T03:53:51;5.07;;;3.07;;
12663;SDS011;6396;58.490;15.528;2022-12-05T03:56:23;2.70;;;2.40;;
12663;SDS011;6396;58.490;15.528;2022-12-05T03:58:56;4.20;;;2.50;;
12663;SDS011;6396;58.490;15.528;2022-12-05T04:01:30;3.40;;;2.73;;
12663;SDS011;6396;58.490;15.528;2022-12-05T04:04:05;3.60;;;3.17;;
12663;SDS011;6396;58.490;15.528;2022-12-05T04:06:36;3.67;;;2.80;;
12663;SDS011;6396;58.490;15.528;2022-12-05T04:09:06;4.63;;;2.90;;
12663;SDS011;6396;58.490;15.528;2022-12-05T04:11:37;3.47;;;2.43;;
12663;SDS011;6396;58.490;15.528;2022-12-05T04:14:09;3.47;;;2.70;;
12663;SDS011;6396;58.490;15.528;2022-12-05T04:16:40;4.20;;;2.70;;
12663;SDS011;6396;58.490;15.528;2022-12-05T04:19:30;3.13;;;2.83;;
12663;SDS011;6396;58.490;15.528;2022-12-05T04:22:21;3.73;;;2.83;;
12663;SDS011;6396;58.490;15.528;2022-12-05T04:24:50;4.10;;;3.00;;
12663;SDS011;6396;58.490;15.528;2022-12-05T04:27:37;3.60;;;2.80;;
12663;SDS011;6396;58.490;15.528;2022-12-05T04:30:10;3.47;;;2.63;;
12663;SDS011;6396;58.490;15.528;2022-12-05T04:32:42;3.10;;;2.80;;
12663;SDS011;6396;58.490;15.528;2022-12-05T04:35:16;4.40;;;2.80;;
12663;SDS011;6396;58.490;15.528;2022-12-05T04:37:48;3.70;;;3.00;;
12663;SDS011;6396;58.490;15.528;2022-12-05T04:40:20;3.60;;;2.80;;
12663;SDS011;6396;58.490;15.528;2022-12-05T04:42:52;3.80;;;3.23;;
12663;SDS011;6396;58.490;15.528;2022-12-05T04:45:22;3.63;;;2.97;;
12663;SDS011;6396;58.490;15.528;2022-12-05T04:47:52;3.40;;;2.83;;
12663;SDS011;6396;58.490;15.528;2022-12-05T04:50:24;3.97;;;2.67;;
12663;SDS011;6396;58.490;15.528;2022-12-05T04:52:55;4.00;;;2.90;;
12663;SDS011;6396;58.490;15.528;2022-12-05T04:55:25;5.67;;;2.83;;
12663;SDS011;6396;58.490;15.528;2022-12-05T04:57:55;3.23;;;2.90;;
12663;SDS011;6396;58.490;15.528;2022-12-05T05:00:28;3.03;;;2.60;;
12663;SDS011;6396;58.490;15.528;2022-12-05T05:02:59;3.60;;;3.07;;
12663;SDS011;6396;58.490;15.528;2022-12-05T05:05:31;3.90;;;3.07;;
12663;SDS011;6396;58.490;15.528;2022-12-05T05:08:01;4.30;;;2.70;;
12663;SDS011;6396;58.490;15.528;2022-12-05T05:10:30;3.30;;;2.97;;
12663;SDS011;6396;58.490;15.528;2022-12-05T05:13:00;3.10;;;2.80;;
12663;SDS011;6396;58.490;15.528;2022-12-05T05:15:28;3.30;;;3.00;;
12663;SDS011;6396;58.490;15.528;2022-12-05T05:18:00;3.77;;;3.07;;
12663;SDS011;6396;58.490;15.528;2022-12-05T05:20:35;4.63;;;3.03;;
12663;SDS011;6396;58.490;15.528;2022-12-05T05:23:02;4.03;;;3.10;;
12663;SDS011;6396;58.490;15.528;2022-12-05T05:25:29;3.37;;;2.87;;
12663;SDS011;6396;58.490;15.528;2022-12-05T05:27:56;2.93;;;2.37;;
12663;SDS011;6396;58.490;15.528;2022-12-05T05:30:23;3.57;;;2.87;;
12663;SDS011;6396;58.490;15.528;2022-12-05T05:32:50;3.83;;;3.00;;
12663;SDS011;6396;58.490;15.528;2022-12-05T05:35:17;3.53;;;2.80;;
12663;SDS011;6396;58.490;15.528;2022-12-05T05:37:46;4.30;;;3.10;;
12663;SDS011;6396;58.490;15.528;2022-12-05T05:40:13;3.60;;;2.80;;
12663;SDS011;6396;58.490;15.528;2022-12-05T05:42:43;3.00;;;2.70;;
12663;SDS011;6396;58.490;15.528;2022-12-05T05:45:11;3.87;;;2.80;;
12663;SDS011;6396;58.490;15.528;2022-12-05T05:47:39;3.50;;;2.70;;
12663;SDS011;6396;58.490;15.528;2022-12-05T05:50:07;3.73;;;3.03;;
12663;SDS011;6396;58.490;15.528;2022-12-05T05:52:35;3.00;;;2.60;;
12663;SDS011;6396;58.490;15.528;2022-12-05T05:55:06;4.67;;;2.80;;
12663;SDS011;6396;58.490;15.528;2022-12-05T05:57:33;4.17;;;3.00;;
12663;SDS011;6396;58.490;15.528;2022-12-05T06:00:01;3.90;;;3.00;;
12663;SDS011;6396;58.490;15.528;2022-12-05T06:02:30;4.03;;;3.07;;
12663;SDS011;6396;58.490;15.528;2022-12-05T06:04:58;3.60;;;2.77;;
12663;SDS011;6396;58.490;15.528;2022-12-05T06:07:24;3.57;;;2.77;;
12663;SDS011;6396;58.490;15.528;2022-12-05T06:09:52;3.80;;;3.00;;
12663;SDS011;6396;58.490;15.528;2022-12-05T06:12:20;2.50;;;2.30;;
12663;SDS011;6396;58.490;15.528;2022-12-05T06:14:47;4.47;;;3.10;;
12663;SDS011;6396;58.490;15.528;2022-12-05T06:17:15;3.73;;;2.73;;
12663;SDS011;6396;58.490;15.528;2022-12-05T06:19:43;3.47;;;2.90;;
12663;SDS011;6396;58.490;15.528;2022-12-05T06:22:09;4.23;;;2.50;;
12663;SDS011;6396;58.490;15.528;2022-12-05T06:24:36;3.30;;;2.90;;
12663;SDS011;6396;58.490;15.528;2022-12-05T06:27:03;4.47;;;3.40;;
12663;SDS011;6396;58.490;15.528;2022-12-05T06:29:32;4.33;;;3.47;;
12663;SDS011;6396;58.490;15.528;2022-12-05T06:31:59;3.13;;;2.83;;
12663;SDS011;6396;58.490;15.528;2022-12-05T06:45:11;3.37;;;2.90;;
12663;SDS011;6396;58.490;15.528;2022-12-05T06:47:39;5.80;;;3.40;;
12663;SDS011;6396;58.490;15.528;2022-12-05T06:50:06;3.37;;;3.07;;
12663;SDS011;6396;58.490;15.528;2022-12-05T06:52:33;3.60;;;2.90;;
12663;SDS011;6396;58.490;15.528;2022-12-05T06:55:00;3.93;;;2.80;;
12663;SDS011;6396;58.490;15.528;2022-12-05T06:57:27;4.33;;;2.80;;
12663;SDS011;6396;58.490;15.528;2022-12-05T06:59:55;3.47;;;2.90;;
12663;SDS011;6396;58.490;15.528;2022-12-05T07:02:51;4.93;;;3.43;;
12663;SDS011;6396;58.490;15.528;2022-12-05T07:05:19;3.93;;;2.80;;
12663;SDS011;6396;58.490;15.528;2022-12-05T07:07:46;4.37;;;3.00;;
12663;SDS011;6396;58.490;15.528;2022-12-05T07:10:14;4.80;;;2.73;;
12663;SDS011;6396;58.490;15.528;2022-12-05T07:12:43;4.23;;;3.20;;
12663;SDS011;6396;58.490;15.528;2022-12-05T07:15:11;3.50;;;2.90;;
12663;SDS011;6396;58.490;15.528;2022-12-05T07:17:37;4.07;;;3.33;;
12663;SDS011;6396;58.490;15.528;2022-12-05T07:20:06;4.40;;;3.03;;
12663;SDS011;6396;58.490;15.528;2022-12-05T07:22:35;4.30;;;3.20;;
12663;SDS011;6396;58.490;15.528;2022-12-05T07:25:02;6.50;;;2.60;;
12663;SDS011;6396;58.490;15.528;2022-12-05T07:27:30;3.73;;;2.70;;
12663;SDS011;6396;58.490;15.528;2022-12-05T07:29:58;4.03;;;3.30;;
12663;SDS011;6396;58.490;15.528;2022-12-05T07:32:25;10.37;;;5.90;;
12663;SDS011;6396;58.490;15.528;2022-12-05T07:34:51;10.13;;;5.87;;
12663;SDS011;6396;58.490;15.528;2022-12-05T07:37:19;9.47;;;5.70;;
12663;SDS011;6396;58.490;15.528;2022-12-05T07:39:46;5.80;;;4.17;;
12663;SDS011;6396;58.490;15.528;2022-12-05T07:42:14;3.63;;;2.80;;
12663;SDS011;6396;58.490;15.528;2022-12-05T07:44:41;3.70;;;3.00;;
12663;SDS011;6396;58.490;15.528;2022-12-05T07:47:07;4.70;;;3.30;;
12663;SDS011;6396;58.490;15.528;2022-12-05T07:49:35;3.60;;;2.83;;
12663;SDS011;6396;58.490;15.528;2022-12-05T07:52:02;5.10;;;2.83;;
12663;SDS011;6396;58.490;15.528;2022-12-05T07:54:35;4.17;;;3.13;;
12663;SDS011;6396;58.490;15.528;2022-12-05T07:57:03;3.77;;;2.80;;
12663;SDS011;6396;58.490;15.528;2022-12-05T07:59:34;5.43;;;3.67;;
12663;SDS011;6396;58.490;15.528;2022-12-05T08:02:02;6.13;;;3.13;;
12663;SDS011;6396;58.490;15.528;2022-12-05T08:04:30;4.03;;;3.03;;
12663;SDS011;6396;58.490;15.528;2022-12-05T08:06:59;4.23;;;3.10;;
12663;SDS011;6396;58.490;15.528;2022-12-05T08:09:27;4.03;;;2.83;;
12663;SDS011;6396;58.490;15.528;2022-12-05T08:11:57;3.90;;;3.00;;
12663;SDS011;6396;58.490;15.528;2022-12-05T08:14:30;3.43;;;2.63;;
12663;SDS011;6396;58.490;15.528;2022-12-05T08:16:57;3.53;;;2.87;;
12663;SDS011;6396;58.490;15.528;2022-12-05T08:19:24;4.90;;;3.07;;
12663;SDS011;6396;58.490;15.528;2022-12-05T08:21:52;2.70;;;2.47;;
12663;SDS011;6396;58.490;15.528;2022-12-05T08:24:19;3.70;;;2.90;;
12663;SDS011;6396;58.490;15.528;2022-12-05T08:26:52;5.47;;;3.40;;
12663;SDS011;6396;58.490;15.528;2022-12-05T08:29:21;4.50;;;3.10;;
12663;SDS011;6396;58.490;15.528;2022-12-05T08:31:53;4.37;;;3.03;;
12663;SDS011;6396;58.490;15.528;2022-12-05T08:34:25;4.73;;;3.00;;
12663;SDS011;6396;58.490;15.528;2022-12-05T08:36:52;6.13;;;3.20;;
12663;SDS011;6396;58.490;15.528;2022-12-05T08:39:18;4.30;;;2.90;;
12663;SDS011;6396;58.490;15.528;2022-12-05T08:41:46;4.27;;;3.17;;
12663;SDS011;6396;58.490;15.528;2022-12-05T08:44:14;5.93;;;3.03;;
12663;SDS011;6396;58.490;15.528;2022-12-05T08:46:47;4.10;;;2.97;;
12663;SDS011;6396;58.490;15.528;2022-12-05T08:49:15;4.77;;;3.20;;
12663;SDS011;6396;58.490;15.528;2022-12-05T08:51:43;4.10;;;3.10;;
12663;SDS011;6396;58.490;15.528;2022-12-05T08:54:12;4.70;;;3.00;;
12663;SDS011;6396;58.490;15.528;2022-12-05T08:56:40;4.43;;;3.00;;
12663;SDS011;6396;58.490;15.528;2022-12-05T08:59:08;3.50;;;2.90;;
12663;SDS011;6396;58.490;15.528;2022-12-05T09:01:37;4.07;;;2.87;;
12663;SDS011;6396;58.490;15.528;2022-12-05T09:04:12;5.20;;;2.90;;
12663;SDS011;6396;58.490;15.528;2022-12-05T09:06:40;4.30;;;3.03;;
12663;SDS011;6396;58.490;15.528;2022-12-05T09:09:08;3.60;;;2.73;;
12663;SDS011;6396;58.490;15.528;2022-12-05T09:11:37;4.00;;;3.17;;
12663;SDS011;6396;58.490;15.528;2022-12-05T09:14:10;4.70;;;3.20;;
12663;SDS011;6396;58.490;15.528;2022-12-05T09:16:37;4.00;;;3.20;;
12663;SDS011;6396;58.490;15.528;2022-12-05T09:19:04;3.90;;;2.80;;
12663;SDS011;6396;58.490;15.528;2022-12-05T09:21:37;4.77;;;2.90;;
12663;SDS011;6396;58.490;15.528;2022-12-05T09:24:04;4.23;;;3.27;;
12663;SDS011;6396;58.490;15.528;2022-12-05T09:26:31;2.77;;;2.43;;
12663;SDS011;6396;58.490;15.528;2022-12-05T09:28:58;4.27;;;2.80;;
12663;SDS011;6396;58.490;15.528;2022-12-05T09:31:25;3.33;;;2.60;;
12663;SDS011;6396;58.490;15.528;2022-12-05T09:33:54;4.80;;;2.60;;
12663;SDS011;6396;58.490;15.528;2022-12-05T09:36:21;5.33;;;3.60;;
12663;SDS011;6396;58.490;15.528;2022-12-05T09:38:51;4.77;;;2.87;;
12663;SDS011;6396;58.490;15.528;2022-12-05T09:41:29;4.10;;;3.20;;
12663;SDS011;6396;58.490;15.528;2022-12-05T09:44:37;3.37;;;2.73;;
12663;SDS011;6396;58.490;15.528;2022-12-05T09:47:10;3.97;;;3.17;;
12663;SDS011;6396;58.490;15.528;2022-12-05T09:49:44;4.23;;;2.80;;
12663;SDS011;6396;58.490;15.528;2022-12-05T09:52:16;4.20;;;3.00;;
12663;SDS011;6396;58.490;15.528;2022-12-05T09:54:51;4.90;;;2.90;;
12663;SDS011;6396;58.490;15.528;2022-12-05T09:57:19;3.17;;;2.80;;
12663;SDS011;6396;58.490;15.528;2022-12-05T09:59:54;3.50;;;3.03;;
12663;SDS011;6396;58.490;15.528;2022-12-05T10:02:23;3.80;;;2.70;;
12663;SDS011;6396;58.490;15.528;2022-12-05T10:04:56;3.27;;;2.70;;
12663;SDS011;6396;58.490;15.528;2022-12-05T10:07:30;3.83;;;2.97;;
12663;SDS011;6396;58.490;15.528;2022-12-05T10:10:19;3.20;;;2.90;;
12663;SDS011;6396;58.490;15.528;2022-12-05T10:12:54;4.77;;;3.27;;
12663;SDS011;6396;58.490;15.528;2022-12-05T10:15:35;3.20;;;2.63;;
12663;SDS011;6396;58.490;15.528;2022-12-05T10:18:08;4.50;;;3.10;;
12663;SDS011;6396;58.490;15.528;2022-12-05T10:20:43;3.00;;;2.70;;
12663;SDS011;6396;58.490;15.528;2022-12-05T10:23:15;3.07;;;2.73;;
12663;SDS011;6396;58.490;15.528;2022-12-05T10:25:48;3.50;;;2.70;;
12663;SDS011;6396;58.490;15.528;2022-12-05T10:28:24;3.47;;;2.80;;
12663;SDS011;6396;58.490;15.528;2022-12-05T10:30:58;3.43;;;2.70;;
12663;SDS011;6396;58.490;15.528;2022-12-05T10:33:35;3.90;;;2.83;;
12663;SDS011;6396;58.490;15.528;2022-12-05T10:36:10;3.57;;;2.80;;
12663;SDS011;6396;58.490;15.528;2022-12-05T10:38:38;4.70;;;3.47;;
12663;SDS011;6396;58.490;15.528;2022-12-05T10:41:09;3.50;;;2.80;;
12663;SDS011;6396;58.490;15.528;2022-12-05T10:43:38;2.63;;;2.43;;
12663;SDS011;6396;58.490;15.528;2022-12-05T10:46:09;3.00;;;2.70;;
12663;SDS011;6396;58.490;15.528;2022-12-05T10:48:37;3.20;;;2.67;;
12663;SDS011;6396;58.490;15.528;2022-12-05T10:51:05;3.57;;;3.10;;
12663;SDS011;6396;58.490;15.528;2022-12-05T10:53:37;4.17;;;2.93;;
12663;SDS011;6396;58.490;15.528;2022-12-05T10:59:05;4.17;;;3.07;;
12663;SDS011;6396;58.490;15.528;2022-12-05T11:01:36;3.77;;;2.80;;
12663;SDS011;6396;58.490;15.528;2022-12-05T11:04:06;5.10;;;3.37;;
12663;SDS011;6396;58.490;15.528;2022-12-05T11:06:49;4.33;;;3.07;;
12663;SDS011;6396;58.490;15.528;2022-12-05T11:09:50;4.07;;;2.93;;
12663;SDS011;6396;58.490;15.528;2022-12-05T11:12:17;4.10;;;3.37;;
12663;SDS011;6396;58.490;15.528;2022-12-05T11:14:53;4.37;;;2.83;;
12663;SDS011;6396;58.490;15.528;2022-12-05T11:17:24;2.83;;;2.57;;
12663;SDS011;6396;58.490;15.528;2022-12-05T11:19:52;4.03;;;3.03;;
12663;SDS011;6396;58.490;15.528;2022-12-05T11:22:19;4.80;;;3.30;;
12663;SDS011;6396;58.490;15.528;2022-12-05T11:24:47;5.30;;;3.20;;
12663;SDS011;6396;58.490;15.528;2022-12-05T11:27:20;5.30;;;3.70;;
12663;SDS011;6396;58.490;15.528;2022-12-05T11:29:53;5.00;;;3.67;;
12663;SDS011;6396;58.490;15.528;2022-12-05T11:32:23;4.60;;;2.80;;
12663;SDS011;6396;58.490;15.528;2022-12-05T11:34:52;4.90;;;2.80;;
12663;SDS011;6396;58.490;15.528;2022-12-05T11:37:28;5.03;;;2.83;;
12663;SDS011;6396;58.490;15.528;2022-12-05T11:40:00;4.17;;;2.73;;
12663;SDS011;6396;58.490;15.528;2022-12-05T11:42:40;7.70;;;5.10;;
12663;SDS011;6396;58.490;15.528;2022-12-05T11:45:25;10.47;;;7.87;;
12663;SDS011;6396;58.490;15.528;2022-12-05T11:48:17;9.50;;;5.10;;
12663;SDS011;6396;58.490;15.528;2022-12-05T11:51:02;5.47;;;3.13;;
12663;SDS011;6396;58.490;15.528;2022-12-05T11:53:55;4.73;;;3.17;;
12663;SDS011;6396;58.490;15.528;2022-12-05T11:56:42;8.00;;;3.77;;
12663;SDS011;6396;58.490;15.528;2022-12-05T11:59:28;5.97;;;4.30;;
12663;SDS011;6396;58.490;15.528;2022-12-05T12:02:12;5.83;;;4.53;;
12663;SDS011;6396;58.490;15.528;2022-12-05T12:04:54;11.53;;;5.47;;
12663;SDS011;6396;58.490;15.528;2022-12-05T12:07:51;5.97;;;4.10;;
12663;SDS011;6396;58.490;15.528;2022-12-05T12:10:32;5.67;;;3.60;;
12663;SDS011;6396;58.490;15.528;2022-12-05T12:13:22;5.33;;;3.10;;
12663;SDS011;6396;58.490;15.528;2022-12-05T12:16:00;4.03;;;3.37;;
12663;SDS011;6396;58.490;15.528;2022-12-05T12:18:44;3.93;;;2.77;;
12663;SDS011;6396;58.490;15.528;2022-12-05T12:21:33;2.73;;;2.43;;
12663;SDS011;6396;58.490;15.528;2022-12-05T12:24:13;7.20;;;4.30;;
12663;SDS011;6396;58.490;15.528;2022-12-05T12:26:52;5.40;;;4.13;;
12663;SDS011;6396;58.490;15.528;2022-12-05T12:29:35;4.50;;;3.80;;
12663;SDS011;6396;58.490;15.528;2022-12-05T12:32:19;5.53;;;3.73;;
12663;SDS011;6396;58.490;15.528;2022-12-05T12:38:00;4.73;;;3.87;;
12663;SDS011;6396;58.490;15.528;2022-12-05T12:40:45;4.73;;;3.50;;
12663;SDS011;6396;58.490;15.528;2022-12-05T12:43:18;5.67;;;3.50;;
12663;SDS011;6396;58.490;15.528;2022-12-05T12:46:02;5.63;;;3.33;;
12663;SDS011;6396;58.490;15.528;2022-12-05T12:48:52;4.07;;;3.30;;
12663;SDS011;6396;58.490;15.528;2022-12-05T12:51:29;4.83;;;3.40;;
12663;SDS011;6396;58.490;15.528;2022-12-05T12:54:01;5.07;;;3.47;;
12663;SDS011;6396;58.490;15.528;2022-12-05T12:56:47;5.00;;;3.63;;
12663;SDS011;6396;58.490;15.528;2022-12-05T12:59:37;2.73;;;2.53;;
12663;SDS011;6396;58.490;15.528;2022-12-05T13:02:17;3.73;;;3.00;;
12663;SDS011;6396;58.490;15.528;2022-12-05T13:04:53;3.83;;;2.70;;
12663;SDS011;6396;58.490;15.528;2022-12-05T13:07:25;3.40;;;2.80;;
12663;SDS011;6396;58.490;15.528;2022-12-05T13:09:59;2.90;;;2.40;;
12663;SDS011;6396;58.490;15.528;2022-12-05T13:12:33;2.93;;;2.53;;
12663;SDS011;6396;58.490;15.528;2022-12-05T13:15:06;2.83;;;2.20;;
12663;SDS011;6396;58.490;15.528;2022-12-05T13:17:39;4.20;;;2.20;;
12663;SDS011;6396;58.490;15.528;2022-12-05T13:20:14;3.23;;;2.37;;
12663;SDS011;6396;58.490;15.528;2022-12-05T13:22:42;2.97;;;2.37;;
12663;SDS011;6396;58.490;15.528;2022-12-05T13:25:12;2.80;;;2.37;;
12663;SDS011;6396;58.490;15.528;2022-12-05T13:27:43;2.20;;;2.00;;
12663;SDS011;6396;58.490;15.528;2022-12-05T13:30:20;2.73;;;2.30;;
12663;SDS011;6396;58.490;15.528;2022-12-05T13:32:54;5.13;;;2.20;;
12663;SDS011;6396;58.490;15.528;2022-12-05T13:35:33;3.93;;;2.63;;
12663;SDS011;6396;58.490;15.528;2022-12-05T13:38:27;2.63;;;2.33;;
12663;SDS011;6396;58.490;15.528;2022-12-05T13:41:14;2.83;;;2.30;;
12663;SDS011;6396;58.490;15.528;2022-12-05T13:43:59;3.17;;;2.40;;
12663;SDS011;6396;58.490;15.528;2022-12-05T13:46:36;2.77;;;1.93;;
12663;SDS011;6396;58.490;15.528;2022-12-05T13:49:05;3.10;;;2.37;;
12663;SDS011;6396;58.490;15.528;2022-12-05T13:51:43;3.97;;;2.40;;
12663;SDS011;6396;58.490;15.528;2022-12-05T13:54:12;4.07;;;2.33;;
12663;SDS011;6396;58.490;15.528;2022-12-05T13:56:48;3.60;;;2.77;;
12663;SDS011;6396;58.490;15.528;2022-12-05T14:05:37;2.70;;;2.20;;
12663;SDS011;6396;58.490;15.528;2022-12-05T14:11:21;2.73;;;2.40;;
12663;SDS011;6396;58.490;15.528;2022-12-05T14:13:48;2.67;;;2.30;;
12663;SDS011;6396;58.490;15.528;2022-12-05T14:19:29;3.00;;;2.20;;
12663;SDS011;6396;58.490;15.528;2022-12-05T14:22:21;3.77;;;2.20;;
12663;SDS011;6396;58.490;15.528;2022-12-05T14:25:18;2.67;;;2.20;;
12663;SDS011;6396;58.490;15.528;2022-12-05T14:27:58;3.47;;;2.60;;
12663;SDS011;6396;58.490;15.528;2022-12-05T14:30:33;2.57;;;2.03;;
12663;SDS011;6396;58.490;15.528;2022-12-05T14:33:12;3.43;;;2.50;;
12663;SDS011;6396;58.490;15.528;2022-12-05T14:35:43;2.20;;;1.93;;
12663;SDS011;6396;58.490;15.528;2022-12-05T14:38:19;2.57;;;2.37;;
12663;SDS011;6396;58.490;15.528;2022-12-05T14:40:53;2.83;;;2.20;;
12663;SDS011;6396;58.490;15.528;2022-12-05T14:43:26;3.30;;;2.23;;
12663;SDS011;6396;58.490;15.528;2022-12-05T14:45:59;2.83;;;2.30;;
12663;SDS011;6396;58.490;15.528;2022-12-05T14:48:30;3.20;;;2.13;;
12663;SDS011;6396;58.490;15.528;2022-12-05T14:51:41;3.30;;;2.30;;
12663;SDS011;6396;58.490;15.528;2022-12-05T14:54:10;2.30;;;2.07;;
12663;SDS011;6396;58.490;15.528;2022-12-05T14:56:43;2.77;;;2.40;;
12663;SDS011;6396;58.490;15.528;2022-12-05T14:59:19;3.13;;;2.67;;
12663;SDS011;6396;58.490;15.528;2022-12-05T15:01:53;4.53;;;2.30;;
12663;SDS011;6396;58.490;15.528;2022-12-05T15:04:30;3.87;;;2.80;;
12663;SDS011;6396;58.490;15.528;2022-12-05T15:07:01;4.70;;;2.70;;
12663;SDS011;6396;58.490;15.528;2022-12-05T15:09:49;5.03;;;2.83;;
12663;SDS011;6396;58.490;15.528;2022-12-05T15:12:24;3.27;;;2.57;;
12663;SDS011;6396;58.490;15.528;2022-12-05T15:14:58;4.00;;;2.87;;
12663;SDS011;6396;58.490;15.528;2022-12-05T15:17:34;2.97;;;2.30;;
12663;SDS011;6396;58.490;15.528;2022-12-05T15:20:05;2.57;;;2.20;;
12663;SDS011;6396;58.490;15.528;2022-12-05T15:22:40;2.90;;;2.60;;
12663;SDS011;6396;58.490;15.528;2022-12-05T15:25:22;3.23;;;2.40;;
12663;SDS011;6396;58.490;15.528;2022-12-05T15:27:52;2.33;;;2.13;;
12663;SDS011;6396;58.490;15.528;2022-12-05T15:30:24;3.17;;;2.37;;
12663;SDS011;6396;58.490;15.528;2022-12-05T15:32:52;3.20;;;2.40;;
12663;SDS011;6396;58.490;15.528;2022-12-05T15:35:19;3.13;;;2.30;;
12663;SDS011;6396;58.490;15.528;2022-12-05T15:37:49;2.50;;;2.30;;
12663;SDS011;6396;58.490;15.528;2022-12-05T15:40:19;2.60;;;2.23;;
12663;SDS011;6396;58.490;15.528;2022-12-05T15:42:48;2.73;;;2.20;;
12663;SDS011;6396;58.490;15.528;2022-12-05T15:45:17;4.67;;;2.50;;
12663;SDS011;6396;58.490;15.528;2022-12-05T15:47:49;2.83;;;2.50;;
12663;SDS011;6396;58.490;15.528;2022-12-05T15:50:20;2.80;;;2.40;;
12663;SDS011;6396;58.490;15.528;2022-12-05T15:52:53;3.90;;;2.93;;